Historyczne dane pomiarowe

Dodano dane terminowe – wersja testowa.

Dane z okresu 1951-2019

Wersja bazy: 1.34 [2019-03-16, lista zmian], aktualizacja planowana na 2019-04-15

Dane meteo z obszaru Polski uzyskane na podstawie danych udostępnionych przez Instytut Meteorologii i Gospodarki Wodnej – Państwowy Instytut Badawczy.

 

Wybierz Datę:    

       

TemperaturaWilgotnośćWiatrCiśnienieOpadyŚniegCzas trwania zjawisk
 Stacja t tx tn tng RH VA  wxwx mslp ppp RRR   cm mm wxwxwxwxwxwxwx
1956-11-09 -6.7 -2.0 -8.9-10.1 95.0- 3.3 0.0---- 0.0-- 5---------
1956-11-08 -2.9 2.9 -5.3 -2.7 87.8- 2.7 0.3---- 0.0-- 7---------
1956-11-07 0.2 3.4 -0.3 0.9 98.5- 8.0 0.3---- 10.1-- 1---------
1956-11-06 1.5 4.7 0.2 0.3 83.8- 7.7 4.7---- 26.2-- 1---------
1956-11-05 4.2 7.0 1.4 1.9 86.3- 7.7 6.0---- 3.1------------
1956-11-04 0.4 2.6 -4.2 -7.2 87.3- 5.7 3.3---- 0.2------------
1956-11-03 -0.1 2.1 -2.3 -4.4 83.3- 7.3 1.0---- 0.0------------
1956-11-02 -0.3 2.9 -5.2 -9.7 91.5- 6.3 1.0---- 0.4------------
1956-11-01 -2.0 6.0 -7.7-10.8 86.5- 0.0 0.0---- 0.0------------
1956-10-31 -3.4 5.5 -4.7 -2.4 87.8- 5.0 2.7---- 0.1------------
1956-10-30 4.4 6.8 1.3 -2.0 88.8- 7.7 1.3---- 1.4------------
1956-10-29 3.6 5.4 0.8 0.7 92.3- 8.0 1.7---- 13.5------------
1956-10-28 5.1 8.6 3.0 4.6 96.5- 8.0 5.3---- 33.6------------
1956-10-27 8.0 10.9 5.6 5.4 96.3- 7.0 0.3---- 2.3------------
1956-10-26 6.1 9.5 5.4 6.4 98.3- 8.0 0.3---- 19.7------------
1956-10-25 9.0 14.9 4.5 1.5 86.0- 4.7 5.7---- 2.1------------
1956-10-24 8.0 16.0 1.9 -0.9 90.3- 1.0 0.3---- 0.0------------
1956-10-23 7.3 13.7 2.5 0.1 91.3- 3.3 2.0---- 0.0------------
1956-10-22 9.1 18.6 3.5 1.4 89.5- 0.0 0.3---- 0.0------------
1956-10-21 9.5 18.0 6.2 2.4 92.3- 2.7 0.3---- 0.0------------
1956-10-20 11.9 14.4 9.3 7.2 93.3- 7.7 0.3---- 0.0------------
1956-10-19 12.0 13.7 10.0 9.9 93.3- 7.7 1.0---- 2.0------------
1956-10-18 9.1 11.6 4.3 -0.2 92.5- 8.0 3.7---- 1.3------------
1956-10-17 6.1 15.5 -2.6 -4.4 85.8- 0.3 2.0---- 0.0------------
1956-10-16 3.9 13.1 -1.6 -3.3 88.3- 2.7 0.7---- 0.0------------
1956-10-15 3.9 12.6 0.7 -2.3 89.5- 0.3 0.7---- 0.0------------
1956-10-14 8.5 12.8 7.3 0.4 91.5- 7.3 3.7---- 7.6------------
1956-10-13 8.7 10.7 4.5 -0.5 79.0- 5.0 6.3---- 0.0------------
1956-10-12 6.3 12.7 -0.1 -3.5 85.5- 2.7 2.0---- 0.0------------
1956-10-11 3.7 12.8 -2.2 -6.0 86.0- 0.0 0.3---- 0.0------------
1956-10-10 3.5 8.8 -0.2 4.7 83.3- 2.7 2.3---- 0.0------------
1956-10-09 6.1 9.0 0.7 -2.5 88.3- 8.0 2.3---- 4.6------------
1956-10-08 3.7 9.4 -1.0 -9.2 89.8- 6.0 1.3---- 0.0------------
1956-10-07 4.1 8.1 2.6 1.8 89.0- 4.3 4.0---- 0.0------------
1956-10-06 5.0 9.2 4.1 3.7 85.0- 8.0 3.0---- 4.8------------
1956-10-05 8.9 12.2 7.3 5.4 76.8- 7.3 4.0---- 7.5------------
1956-10-04 10.8 13.9 9.6 6.7 86.5- 7.3 0.7---- 1.0------------
1956-10-03 13.7 20.0 10.2 10.3 79.0- 6.0 3.3---- 6.7------------
1956-10-02 19.3 23.8 7.5 4.0 62.0- 3.0 4.3---- 0.0------------
1956-10-01 13.8 24.8 6.7 4.3 82.3- 2.7 1.3---- 0.0------------
1956-09-30 14.3 22.0 11.3 8.0 84.5- 3.3 0.7---- 0.0------------
1956-09-29 16.7 22.4 15.0 12.6 75.3- 4.0 2.3---- 0.0------------
1956-09-28 14.9 17.1 11.3 7.2 74.8- 7.3 5.7---- 0.0------------
1956-09-27 15.0 21.0 13.3 10.0 78.0- 3.3 4.7---- 0.0------------
1956-09-26 16.5 21.5 11.3 6.7 43.0- 0.3 9.0---- 0.0------------
1956-09-25 13.7 21.2 2.7 0.5 61.8- 0.0 5.3---- 0.0------------
1956-09-24 8.4 16.0 4.9 1.5 95.0- 5.3 1.3---- 0.0------------
1956-09-23 11.5 20.3 3.4 0.9 81.0- 0.0 2.0---- 0.0------------
1956-09-22 11.5 23.0 2.7 0.8 82.3- 2.7 0.7---- 0.0------------
1956-09-21 10.0 20.1 2.5 -0.1 86.5- 2.7 0.3---- 0.0------------
1956-09-20 9.9 17.6 1.6 -1.4 77.3- 2.3 1.7---- 0.0------------
1956-09-19 6.7 16.8 1.3 -1.0 85.8- 3.3 0.7---- 0.0------------
1956-09-18 6.3 13.4 2.5 0.4 90.3- 4.7 0.7---- 0.0------------
1956-09-17 8.6 12.1 5.6 3.0 92.5- 6.7 2.3---- 4.0------------
1956-09-16 11.3 18.3 5.3 2.2 88.3- 5.0 2.0---- 0.0------------
1956-09-15 10.2 17.7 1.9 -0.4 89.5- 7.7 0.7---- 0.0------------
1956-09-14 9.4 15.4 7.4 6.2 84.5- 4.0 2.7---- 0.0------------
1956-09-13 8.9 13.1 7.5 5.7 88.8- 6.7 2.7---- 5.1------------
1956-09-12 10.9 15.2 8.4 6.7 83.5- 7.3 4.7---- 2.4------------
1956-09-11 14.4 20.0 12.4 10.0 91.5- 4.7 2.7---- 12.3------------
257.0 ms

 

Źródłem pochodzenia danych jest Instytut Meteorologii i Gospodarki Wodnej – Państwowy Instytut Badawczy. Dane Instytutu Meteorologii i Gospodarki Wodnej – Państwowego Instytutu Badawczego zostały przetworzone.

Dane źródłowe można odnaleźć na stronie https://dane.imgw.pl